createdAt,value
2019-05-07T00:45:20.656Z,70.97
2019-05-07T00:49:33.049Z,70.97
2019-05-07T00:57:46.984Z,70.97
2019-05-07T01:00:19.025Z,70.97
2019-05-07T01:03:06.442Z,70.97
2019-05-07T01:06:05.975Z,70.97
2019-05-07T01:12:48.931Z,70.97
2019-05-07T01:23:42.801Z,70.97
2019-05-07T01:34:54.653Z,70.97
2019-05-07T01:40:23.568Z,70.97
2019-05-07T01:44:44.855Z,70.97
2019-05-07T01:50:22.725Z,70.97
2019-05-07T01:52:46.529Z,70.97
2019-05-07T01:55:10.201Z,80.59
2019-05-07T01:57:35.693Z,79.94
2019-05-07T02:00:06.467Z,79.94
2019-05-07T02:02:32.081Z,79.94
2019-05-07T02:05:04.063Z,79.94
2019-05-07T02:07:33.457Z,79.94
2019-05-07T02:10:02.851Z,79.94
2019-05-07T02:12:28.224Z,77.59
2019-05-07T02:14:53.027Z,77.69
2019-05-07T02:17:16.798Z,77.39
2019-05-07T02:19:42.371Z,76.73
2019-05-07T02:22:05.654Z,77.74
2019-05-07T02:24:29.364Z,77.90
2019-05-07T02:26:52.900Z,77.90
2019-05-07T02:29:16.426Z,77.77
2019-05-07T02:31:39.966Z,78.07
2019-05-07T02:34:03.496Z,78.75
2019-05-07T02:40:33.926Z,78.85
2019-05-07T02:43:46.289Z,78.85
2019-05-07T02:47:33.056Z,78.85
2019-05-07T02:49:58.619Z,78.85
2019-05-07T02:52:33.565Z,78.85
2019-05-07T02:55:03.890Z,78.85
2019-05-07T02:57:27.815Z,78.85
2019-05-07T03:00:14.717Z,80.45
2019-05-07T03:03:35.850Z,80.45
2019-05-07T03:06:06.588Z,80.45
2019-05-07T03:08:33.065Z,80.45
2019-05-07T03:10:55.744Z,80.45
2019-05-07T03:13:23.218Z,80.45
2019-05-07T03:17:13.479Z,80.45
2019-05-07T03:19:38.824Z,80.45
2019-05-07T03:22:04.990Z,80.45
2019-05-07T03:24:35.812Z,80.45
2019-05-07T03:27:03.270Z,80.45
2019-05-07T03:29:44.217Z,80.45
2019-05-07T03:32:28.106Z,80.45
2019-05-07T03:34:57.747Z,80.45
2019-05-07T03:37:19.999Z,80.45
2019-05-07T03:39:43.646Z,80.96
2019-05-07T03:42:09.331Z,80.92
2019-05-07T03:44:44.576Z,80.92
2019-05-07T03:47:26.442Z,80.92
2019-05-07T03:49:53.327Z,80.29
2019-05-07T03:56:03.665Z,81.29
2019-05-07T04:06:03.812Z,81.29
2019-05-07T04:08:28.482Z,81.29
2019-05-07T04:11:25.204Z,81.29
2019-05-07T04:13:58.940Z,81.29
2019-05-07T04:16:26.040Z,81.29
2019-05-07T04:18:52.824Z,81.29
2019-05-07T04:21:15.326Z,81.29
2019-05-07T04:23:43.642Z,79.71
2019-05-07T04:26:14.075Z,79.71
2019-05-07T04:28:39.263Z,79.71
2019-05-07T04:31:03.279Z,78.18
2019-05-07T04:33:43.656Z,78.18
2019-05-07T04:36:14.305Z,79.45
2019-05-07T04:38:38.002Z,79.45
2019-05-07T04:42:13.313Z,80.07
2019-05-07T04:44:36.925Z,80.07
2019-05-07T04:48:56.758Z,79.91
2019-05-07T04:52:28.637Z,79.91
2019-05-07T04:54:57.571Z,79.91
2019-05-07T04:57:27.218Z,79.91
2019-05-07T04:59:53.359Z,79.91
2019-05-07T05:04:48.614Z,79.91
2019-05-07T05:07:13.374Z,79.91
2019-05-07T05:09:37.120Z,79.26
2019-05-07T05:15:57.800Z,79.95
2019-05-07T05:32:45.419Z,79.95
2019-05-07T05:35:14.996Z,79.95
2019-05-07T05:38:22.821Z,79.95
2019-05-07T05:42:11.847Z,79.95
2019-05-07T05:44:35.779Z,79.95
2019-05-07T05:46:59.713Z,79.95
2019-05-07T05:49:24.437Z,79.95
2019-05-07T05:52:32.851Z,79.95
2019-05-07T06:24:37.457Z,79.95
2019-05-07T06:27:02.911Z,79.95
2019-05-07T06:29:44.279Z,74.07
2019-05-07T06:32:09.459Z,74.07
2019-05-07T06:34:34.248Z,71.91
2019-05-07T06:36:57.978Z,71.60
2019-05-07T06:39:23.136Z,70.76
2019-05-07T06:42:07.298Z,71.11
2019-05-07T06:44:31.990Z,71.08
2019-05-07T06:46:55.630Z,70.80
2019-05-07T06:49:19.167Z,70.61
2019-05-07T06:51:52.816Z,68.98
2019-05-07T06:54:16.653Z,68.73
2019-05-07T06:56:42.145Z,68.73
2019-05-07T06:59:07.397Z,66.87
2019-05-07T07:01:32.869Z,64.02
2019-05-07T07:04:09.795Z,63.35
2019-05-07T07:06:39.229Z,64.67
2019-05-07T07:09:22.261Z,64.73
2019-05-07T07:11:56.304Z,64.92
2019-05-07T07:14:23.864Z,65.35
2019-05-07T07:16:47.423Z,64.62
2019-05-07T07:19:12.487Z,64.33
2019-05-07T07:21:36.158Z,65.45
2019-05-07T07:23:59.697Z,64.29
2019-05-07T07:26:23.239Z,64.44
2019-05-07T07:28:46.767Z,66.00
2019-05-07T07:31:26.250Z,63.71
2019-05-07T07:33:54.227Z,63.71
2019-05-07T07:36:22.581Z,63.71
2019-05-07T07:38:52.609Z,63.71
2019-05-07T07:42:20.259Z,63.71
2019-05-07T07:45:17.662Z,63.71
2019-05-07T07:50:02.323Z,63.71
2019-05-07T07:52:26.063Z,63.71
2019-05-07T07:54:49.589Z,60.64
2019-05-07T07:57:52.063Z,60.25
2019-05-07T08:14:23.127Z,60.25
2019-05-07T08:19:39.192Z,60.25
2019-05-07T08:24:04.330Z,60.25
2019-05-07T08:26:27.981Z,60.25
2019-05-07T08:36:37.396Z,60.25
2019-05-07T08:39:02.572Z,60.25
2019-05-07T08:41:31.745Z,50.81
2019-05-07T08:44:19.242Z,50.81
2019-05-07T08:46:48.368Z,50.81
2019-05-07T08:49:13.614Z,50.81
2019-05-07T08:51:37.135Z,50.81
2019-05-07T08:54:06.419Z,50.81
2019-05-07T08:56:31.862Z,50.81
2019-05-07T09:13:35.980Z,50.81
2019-05-07T09:15:59.503Z,50.81
2019-05-07T09:18:23.051Z,48.02
2019-05-07T09:20:46.642Z,47.96
2019-05-07T09:23:12.216Z,47.43
2019-05-07T09:25:38.856Z,47.43
2019-05-07T09:28:02.744Z,47.43
2019-05-07T09:30:44.352Z,46.14
2019-05-07T09:33:12.574Z,43.97
2019-05-07T09:35:47.199Z,43.21
2019-05-07T09:38:12.185Z,43.21
2019-05-07T09:40:35.968Z,43.21
2019-05-07T09:42:59.485Z,43.21
2019-05-07T09:45:23.693Z,41.63
2019-05-07T09:47:47.210Z,41.63
2019-05-07T09:50:12.118Z,42.28
2019-05-07T09:52:35.657Z,42.28
2019-05-07T09:54:59.203Z,42.28
2019-05-07T09:57:30.187Z,42.28
2019-05-07T10:00:12.508Z,41.96
2019-05-07T10:02:36.153Z,42.43
2019-05-07T10:05:02.054Z,41.82
2019-05-07T10:07:25.368Z,41.87
2019-05-07T10:09:48.969Z,39.86
2019-05-07T10:12:26.310Z,39.74
2019-05-07T10:14:49.922Z,39.25
2019-05-07T10:18:02.300Z,37.69
2019-05-07T10:20:26.980Z,37.26
2019-05-07T10:22:51.984Z,37.64
2019-05-07T10:25:15.876Z,41.17
2019-05-07T10:27:41.857Z,40.07
2019-05-07T10:30:06.054Z,40.50
2019-05-07T10:32:29.655Z,41.31
2019-05-07T10:34:53.268Z,41.25
2019-05-07T10:37:16.920Z,40.86
2019-05-07T10:39:40.535Z,41.37
2019-05-07T10:42:04.319Z,43.50
2019-05-07T10:44:37.953Z,42.73
2019-05-07T10:47:19.490Z,40.36
2019-05-07T10:49:47.661Z,42.99
2019-05-07T10:52:12.567Z,42.28
2019-05-07T10:54:36.222Z,40.75
2019-05-07T10:56:59.750Z,39.52
2019-05-07T10:59:23.335Z,38.53
2019-05-07T11:02:02.327Z,36.61
2019-05-07T11:04:39.056Z,37.62
2019-05-07T11:06:52.416Z,35.62
2019-05-07T11:09:16.038Z,35.62
2019-05-07T11:11:39.600Z,38.96
2019-05-07T11:14:03.284Z,38.62
2019-05-07T11:16:28.463Z,37.69
2019-05-07T11:18:53.080Z,38.52
2019-05-07T11:21:32.967Z,37.99
2019-05-07T11:23:56.002Z,37.99
2019-05-07T11:26:19.543Z,41.31
2019-05-07T11:28:43.119Z,42.54
2019-05-07T11:31:06.741Z,42.68
2019-05-07T11:33:32.336Z,42.37
2019-05-07T11:35:55.627Z,42.11
2019-05-07T11:38:22.263Z,40.75
2019-05-07T11:40:44.512Z,40.75
2019-05-07T11:43:09.688Z,43.78
2019-05-07T11:45:37.977Z,43.78
2019-05-07T11:48:01.928Z,44.80
2019-05-07T11:50:33.025Z,42.93
2019-05-07T11:52:58.370Z,44.08
2019-05-07T11:55:22.447Z,44.07
2019-05-07T11:57:46.307Z,43.73
2019-05-07T12:00:13.164Z,43.73
2019-05-07T12:02:36.660Z,42.11
2019-05-07T12:05:01.956Z,41.81
2019-05-07T12:07:25.497Z,42.71
2019-05-07T12:09:49.027Z,40.81
2019-05-07T12:12:12.813Z,40.63
2019-05-07T12:15:12.479Z,41.44
2019-05-07T12:17:36.155Z,41.44
2019-05-07T12:20:02.202Z,38.81
2019-05-07T12:22:42.797Z,39.20
2019-05-07T12:25:06.867Z,39.21
2019-05-07T12:27:32.333Z,38.63
2019-05-07T12:29:55.653Z,40.06
2019-05-07T12:32:22.075Z,38.18
2019-05-07T12:34:52.755Z,36.48
2019-05-07T12:37:16.590Z,37.03
2019-05-07T12:39:42.192Z,37.03
2019-05-07T12:42:05.530Z,39.35
2019-05-07T12:44:29.126Z,39.61
2019-05-07T12:46:52.733Z,37.91
2019-05-07T12:49:16.245Z,38.99
2019-05-07T12:51:53.352Z,39.12
2019-05-07T12:57:15.704Z,39.15
2019-05-07T12:59:39.609Z,40.00
2019-05-07T13:02:33.948Z,40.00
2019-05-07T13:05:12.001Z,38.68
2019-05-07T13:07:37.173Z,38.68
2019-05-07T13:10:02.591Z,38.27
2019-05-07T13:12:32.264Z,39.22
2019-05-07T13:14:55.931Z,39.22
2019-05-07T13:17:19.496Z,37.43
2019-05-07T13:19:43.024Z,38.75
2019-05-07T13:22:06.650Z,38.41
2019-05-07T13:24:32.120Z,38.55
2019-05-07T13:33:34.551Z,39.09
2019-05-07T13:37:24.449Z,39.09
2019-05-07T13:39:52.848Z,39.09
2019-05-07T13:42:18.315Z,38.83
2019-05-07T13:44:55.530Z,38.83
2019-05-07T13:47:26.980Z,38.83
2019-05-07T13:49:53.625Z,35.01
2019-05-07T13:52:16.951Z,35.68
2019-05-07T13:54:41.948Z,37.43
2019-05-07T13:57:05.750Z,35.18
2019-05-07T13:59:29.455Z,36.17
2019-05-07T14:02:04.709Z,35.67
2019-05-07T14:04:27.109Z,37.07
2019-05-07T14:06:52.827Z,36.31
2019-05-07T14:09:23.858Z,37.41
2019-05-07T14:11:45.951Z,37.00
2019-05-07T14:14:29.097Z,36.99
2019-05-07T14:16:53.142Z,36.63
2019-05-07T14:19:16.854Z,37.71
2019-05-07T14:21:42.219Z,32.35
